createdAt,value
2019-01-13T00:03:34.377Z,5.7
2019-01-13T00:08:33.661Z,5.7
2019-01-13T00:13:34.316Z,5.8
2019-01-13T00:18:34.605Z,5.8
2019-01-13T00:23:34.003Z,5.9
2019-01-13T00:28:34.475Z,5.9
2019-01-13T00:33:34.400Z,6
2019-01-13T00:38:33.735Z,6
2019-01-13T00:43:34.194Z,6.1
2019-01-13T00:48:33.843Z,6.1
2019-01-13T00:53:34.485Z,6.1
2019-01-13T00:58:33.940Z,6.1
2019-01-13T01:03:34.730Z,6.1
2019-01-13T01:08:34.421Z,6.1
2019-01-13T01:13:34.063Z,6.2
2019-01-13T01:18:34.646Z,6.2
2019-01-13T01:23:34.041Z,6.2
2019-01-13T01:28:34.430Z,6.2
2019-01-13T01:33:33.827Z,6.2
2019-01-13T01:38:34.076Z,6.2
2019-01-13T01:43:34.481Z,6.2
2019-01-13T01:48:33.793Z,6.2
2019-01-13T01:53:33.994Z,6.3
2019-01-13T01:58:34.398Z,6.3
2019-01-13T02:03:33.851Z,6.3
2019-01-13T02:08:34.352Z,6.3
2019-01-13T02:13:34.102Z,6.3
2019-01-13T02:18:34.033Z,6.3
2019-01-13T02:23:34.458Z,6.3
2019-01-13T02:28:33.819Z,6.3
2019-01-13T02:33:34.235Z,6.3
2019-01-13T02:38:34.601Z,6.3
2019-01-13T02:43:34.038Z,6.3
2019-01-13T02:48:34.418Z,6.3
2019-01-13T02:53:34.118Z,6.3
2019-01-13T02:58:34.567Z,6.3
2019-01-13T03:03:34.017Z,6.3
2019-01-13T03:08:34.453Z,6.3
2019-01-13T03:13:34.002Z,6.3
2019-01-13T03:18:34.597Z,6.3
2019-01-13T03:23:34.094Z,6.4
2019-01-13T03:28:34.497Z,6.4
2019-01-13T03:33:33.881Z,6.4
2019-01-13T03:38:34.210Z,6.4
2019-01-13T03:43:34.634Z,6.4
2019-01-13T03:48:34.034Z,6.4
2019-01-13T03:53:34.391Z,6.4
2019-01-13T03:58:34.667Z,6.4
2019-01-13T04:03:34.151Z,6.4
2019-01-13T04:08:34.236Z,6.4
2019-01-13T04:13:34.824Z,6.4
2019-01-13T04:18:34.235Z,6.4
2019-01-13T04:23:34.590Z,6.4
2019-01-13T04:28:33.937Z,6.4
2019-01-13T04:33:34.370Z,6.4
2019-01-13T04:38:34.665Z,6.4
2019-01-13T04:43:34.121Z,6.4
2019-01-13T04:48:34.590Z,6.4
2019-01-13T04:53:34.240Z,6.5
2019-01-13T04:58:34.643Z,6.5
2019-01-13T05:03:34.153Z,6.5
2019-01-13T05:08:34.429Z,6.5
2019-01-13T05:13:34.863Z,6.6
2019-01-13T05:18:34.390Z,6.6
2019-01-13T05:23:34.813Z,6.6
2019-01-13T05:28:34.522Z,6.6
2019-01-13T05:33:34.237Z,6.6
2019-01-13T05:38:34.734Z,6.6
2019-01-13T05:43:34.292Z,6.6
2019-01-13T05:48:34.717Z,6.6
2019-01-13T05:53:34.450Z,6.6
2019-01-13T05:58:35.065Z,6.6
2019-01-13T06:03:34.679Z,6.6
2019-01-13T06:08:34.936Z,6.6
2019-01-13T06:13:34.559Z,6.6
2019-01-13T06:18:34.956Z,6.6
2019-01-13T06:23:34.436Z,6.6
2019-01-13T06:28:34.732Z,6.6
2019-01-13T06:33:34.132Z,6.6
2019-01-13T06:38:34.577Z,6.6
2019-01-13T06:43:35.030Z,6.6
2019-01-13T06:48:34.363Z,6.6
2019-01-13T06:53:34.922Z,6.7
2019-01-13T06:58:34.387Z,6.7
2019-01-13T07:03:34.747Z,6.7
2019-01-13T07:08:34.263Z,6.7
2019-01-13T07:13:34.909Z,6.7
2019-01-13T07:18:34.363Z,6.7
2019-01-13T07:23:34.791Z,6.7
2019-01-13T07:28:34.230Z,6.7
2019-01-13T07:33:34.990Z,6.7
2019-01-13T07:38:34.358Z,6.7
2019-01-13T07:43:34.731Z,6.7
2019-01-13T07:48:35.173Z,6.7
2019-01-13T07:53:34.786Z,6.7
2019-01-13T07:58:34.156Z,6.7
2019-01-13T08:03:34.526Z,6.8
2019-01-13T08:08:34.518Z,6.8
2019-01-13T08:13:35.146Z,6.8
2019-01-13T08:18:34.581Z,6.8
2019-01-13T08:23:34.577Z,6.9
2019-01-13T08:28:34.898Z,6.9
2019-01-13T08:33:34.501Z,6.9
2019-01-13T08:38:34.849Z,6.9
2019-01-13T08:43:34.240Z,7
2019-01-13T08:48:34.633Z,7
2019-01-13T08:53:34.397Z,7.1
2019-01-13T08:58:34.725Z,7.1
2019-01-13T09:03:35.322Z,7.1
2019-01-13T09:08:34.612Z,7.1
2019-01-13T09:13:35.054Z,7.2
2019-01-13T09:18:34.477Z,7.2
2019-01-13T09:23:34.805Z,7.2
2019-01-13T09:28:35.153Z,7.2
2019-01-13T09:33:34.901Z,7.3
2019-01-13T09:38:34.301Z,7.3
2019-01-13T09:43:34.759Z,7.4
2019-01-13T09:48:35.098Z,7.4
2019-01-13T09:53:34.672Z,7.6
2019-01-13T09:58:34.982Z,7.6
2019-01-13T10:03:34.579Z,7.7
2019-01-13T10:08:34.457Z,7.7
2019-01-13T10:13:35.016Z,7.8
2019-01-13T10:18:34.434Z,7.8
2019-01-13T10:23:34.938Z,7.8
2019-01-13T10:28:35.008Z,7.8
2019-01-13T10:33:34.712Z,7.9
2019-01-13T10:38:35.212Z,7.9
2019-01-13T10:43:34.664Z,8
2019-01-13T10:48:35.134Z,8
2019-01-13T10:53:34.876Z,8.1
2019-01-13T10:58:35.240Z,8.1
2019-01-13T11:03:35.055Z,8.2
2019-01-13T11:08:34.885Z,8.2
2019-01-13T11:13:34.461Z,8.3
2019-01-13T11:18:34.941Z,8.3
2019-01-13T11:23:34.579Z,8.4
2019-01-13T11:28:34.895Z,8.4
2019-01-13T11:33:34.762Z,8.5
2019-01-13T11:38:35.184Z,8.5
2019-01-13T11:43:34.517Z,8.5
2019-01-13T11:48:35.042Z,8.5
2019-01-13T11:53:34.823Z,8.5
2019-01-13T11:58:35.180Z,8.5
2019-01-13T12:03:34.680Z,8.5
2019-01-13T12:08:34.908Z,8.5
2019-01-13T12:13:34.494Z,8.5
2019-01-13T12:18:40.459Z,8.5
2019-01-13T12:23:35.253Z,8.5
2019-01-13T12:28:34.690Z,8.5
2019-01-13T12:33:35.334Z,8.6
2019-01-13T12:38:34.714Z,8.6
2019-01-13T12:43:35.160Z,8.6
2019-01-13T12:48:34.519Z,8.6
2019-01-13T12:53:34.869Z,8.5
2019-01-13T12:58:35.188Z,8.5
2019-01-13T13:03:34.954Z,8.4
2019-01-13T13:08:35.456Z,8.4
2019-01-13T13:13:35.338Z,8.4
2019-01-13T13:18:34.667Z,8.4
2019-01-13T13:23:35.035Z,8.4
2019-01-13T13:28:35.470Z,8.4
2019-01-13T13:33:38.711Z,8.4
2019-01-13T13:38:35.451Z,8.4
2019-01-13T13:43:34.851Z,8.4
2019-01-13T13:48:35.211Z,8.4
2019-01-13T13:53:34.619Z,8.4
2019-01-13T13:58:35.063Z,8.4
2019-01-13T14:03:35.505Z,8.3
2019-01-13T14:08:35.006Z,8.3
2019-01-13T14:13:34.831Z,8.2
2019-01-13T14:18:35.224Z,8.2
2019-01-13T14:23:34.598Z,8.2
2019-01-13T14:28:34.913Z,8.2
2019-01-13T14:33:35.361Z,8.2
2019-01-13T14:38:34.754Z,8.2
2019-01-13T14:43:35.172Z,8.1
2019-01-13T14:48:35.592Z,8.1
2019-01-13T14:53:35.065Z,8.1
2019-01-13T14:58:35.408Z,8.1
2019-01-13T15:03:35.482Z,8
2019-01-13T15:08:35.275Z,8
2019-01-13T15:13:34.672Z,7.9
2019-01-13T15:18:35.019Z,7.9
2019-01-13T15:23:35.408Z,7.8
2019-01-13T15:28:34.768Z,7.8
2019-01-13T15:33:35.453Z,7.4
2019-01-13T15:38:34.868Z,7.4
2019-01-13T15:43:35.180Z,7.3
2019-01-13T15:48:35.531Z,7.3
2019-01-13T15:53:34.931Z,7.3
2019-01-13T15:58:35.297Z,7.3
2019-01-13T16:03:35.813Z,7.2
2019-01-13T16:08:35.255Z,7.2
2019-01-13T16:13:35.671Z,7.2
2019-01-13T16:18:35.050Z,7.2
2019-01-13T16:23:35.525Z,7.2
2019-01-13T16:28:34.995Z,7.2
2019-01-13T16:33:35.370Z,7.1
2019-01-13T16:38:34.775Z,7.1
2019-01-13T16:43:35.336Z,7
2019-01-13T16:48:35.703Z,7
2019-01-13T16:53:35.105Z,6.9
2019-01-13T16:58:35.473Z,6.9
2019-01-13T17:03:34.974Z,6.8
2019-01-13T17:08:35.689Z,6.8
2019-01-13T17:13:35.793Z,6.8
2019-01-13T17:18:35.238Z,6.8
2019-01-13T17:23:35.632Z,6.8
2019-01-13T17:28:34.959Z,6.8
2019-01-13T17:33:35.382Z,6.8
2019-01-13T17:38:35.945Z,6.8
2019-01-13T17:43:35.317Z,6.8
2019-01-13T17:48:35.695Z,6.8
2019-01-13T17:53:35.105Z,6.7
2019-01-13T17:58:35.400Z,6.7
2019-01-13T18:03:35.897Z,6.7
2019-01-13T18:08:35.429Z,6.7
2019-01-13T18:13:35.825Z,6.7
2019-01-13T18:18:35.195Z,6.7
2019-01-13T18:23:35.598Z,6.7
2019-01-13T18:28:34.912Z,6.7
2019-01-13T18:33:35.435Z,6.7
2019-01-13T18:38:35.795Z,6.7
2019-01-13T18:43:35.279Z,6.7
2019-01-13T18:48:35.692Z,6.7
2019-01-13T18:53:35.105Z,6.7
2019-01-13T18:58:35.439Z,6.7
2019-01-13T19:03:35.975Z,6.8
2019-01-13T19:08:36.451Z,6.8
2019-01-13T19:13:35.017Z,6.7
2019-01-13T19:18:35.501Z,6.7
2019-01-13T19:23:35.896Z,6.8
2019-01-13T19:28:35.257Z,6.8
2019-01-13T19:33:35.636Z,6.8
2019-01-13T19:38:35.022Z,6.8
2019-01-13T19:43:35.483Z,6.9
2019-01-13T19:48:35.898Z,6.9
2019-01-13T19:53:35.299Z,6.9
2019-01-13T19:58:35.768Z,6.9
2019-01-13T20:03:35.283Z,6.9
2019-01-13T20:08:35.890Z,6.9
2019-01-13T20:13:35.409Z,6.8
2019-01-13T20:18:35.882Z,6.8
2019-01-13T20:23:35.302Z,6.8
2019-01-13T20:28:35.670Z,6.8
2019-01-13T20:33:35.883Z,6.8
2019-01-13T20:38:35.391Z,6.8
2019-01-13T20:43:35.832Z,6.8
2019-01-13T20:48:35.301Z,6.8
2019-01-13T20:53:35.733Z,6.6
2019-01-13T20:58:35.123Z,6.6
2019-01-13T21:03:35.639Z,6.4
2019-01-13T21:08:35.418Z,6.4
2019-01-13T21:13:35.818Z,6.3
2019-01-13T21:18:35.302Z,6.3
2019-01-13T21:23:35.677Z,6.2
2019-01-13T21:28:36.016Z,6.2
2019-01-13T21:33:35.494Z,6
2019-01-13T21:38:35.808Z,6
2019-01-13T21:43:35.109Z,5.9
2019-01-13T21:48:35.536Z,5.9
2019-01-13T21:53:36.003Z,5.9
2019-01-13T21:58:35.432Z,5.9
2019-01-13T22:03:36.061Z,5.8
2019-01-13T22:08:35.633Z,5.8
2019-01-13T22:13:35.269Z,5.8
2019-01-13T22:18:35.615Z,5.8
2019-01-13T22:23:36.186Z,5.6
2019-01-13T22:28:35.532Z,5.6
2019-01-13T22:33:35.376Z,5.5
2019-01-13T22:38:35.843Z,5.5
2019-01-13T22:43:35.399Z,5.4
2019-01-13T22:48:35.498Z,5.4
2019-01-13T22:53:35.350Z,5.3
2019-01-13T22:58:35.778Z,5.3
2019-01-13T23:03:36.101Z,5.2
2019-01-13T23:08:35.726Z,5.2
2019-01-13T23:13:35.955Z,5.2
2019-01-13T23:18:35.344Z,5.2
2019-01-13T23:23:35.869Z,5.1
2019-01-13T23:28:35.254Z,5.1
2019-01-13T23:33:35.981Z,5
2019-01-13T23:38:35.426Z,5
2019-01-13T23:43:35.904Z,4.9
2019-01-13T23:48:35.325Z,4.9
2019-01-13T23:53:35.957Z,4.7
2019-01-13T23:58:35.317Z,4.7
